Terminal Aerodrome Forecast
Issued by NWS

Home | Current Version | Previous Version | Text Only | Print | Product List | Glossary On
Versions: 1 2 3 4 5 6 7 8 9 10 11 12 13 14 15 16 17 18 19 20 21 22 23
000
FTUS43 KDVN 271600 AAD
TAFCID
TAF AMD
KCID 271602Z 2716/2812 28015G22KT P6SM OVC015
     FM271900 30014KT P6SM OVC020
     FM272200 30011KT P6SM BKN030
     FM280100 30008KT P6SM SCT030=

USA.gov is the U.S. government's official web portal to all federal, state and local government web resources and services.